Goodway, Alabama
Current Conditions -  °F | °C
As of 3:53 PM on Sunday 23 Nov 2014 (Local Time) from KGZH Reporting Station
Overcast Overcast  
Wind Chill: 66°   Ceiling: 2400
Heat Index: 66°   Visibility: 10mi
Dew Point: 59°   Wind: 10mph
Humidity: 78%   Direction: 210°SSW
Pressure: 29.68"   Gusts: 22mph
Location:  31.34°N, 87.43°W
Report Text: KGZH 232153Z AUTO 21009G19KT 10SM OVC024 19/15 A2968 RMK AO2 SLP048 T01890150
Loading
Personal Weather Stations






























Interactive Weather Map New forecast layout! Learn more

10-Day Weather Forecast

Advertisements
Track Severe Weather on mobile